Aérodrome :
LOGIN :

S'inscrire | Disclaimer

   EN    FR    IT 

 










Légende :    VFR   VFR Marginal   IFR   IFR Intensif   IFR Très Intensif
Visi : 
Plafond : 
>= 8 km
>= 3000ft
5 à 8 km
1000 à 3000 ft
1500m à 5 km
500 à 1000 ft
800 à 1500m
200 à 500 ft
< 800m
< 200 ft
Symboles :   Orages  Brouillard  Fortes neiges  Fortes précipitations  Vent > 20 kt
SIGMETs :   Divers  Orages  Givrage  Turbulence  Onde Orograph.  Cendres Volcan.






- Altitude de l'aérodrome : 584 ft


LFPV - Villacoublay Vélizy

DERNIER METAR :
  • 271400Z AUTO 31022G33KT 9999 BKN022 OVC031 06/03 Q0999 NOSIG

METARs EXPIRÉS :
  • 271330Z AUTO 31027G41KT 9999 BKN022 OVC028 07/03 Q0996 BECMG 32015G30KT
  • 271300Z AUTO 31031G48KT 9999 FEW015 BKN022 OVC027 07/03 Q0994 BECMG 32015G30KT
  • 271230Z AUTO 28024G39KT 9999 -RA BKN014 BKN021 OVC027 09/08 Q0991 BECMG BKN015
  • 271200Z AUTO 27024G38KT 9999 BKN023 OVC034 11/07 Q0991 NOSIG
  • 271130Z AUTO 25014KT 9999 SCT013 BKN019 OVC029 11/09 Q0990

TAF TAF LFPV
Valide du 27 à 09h jusqu'au 28 à 09h UTC


270800Z 2709/2809 17015G25KT 2700 -RA BR OVC004
BECMG 2710/2711 27020G45KT 9999 NSW BKN015
BECMG 2713/2715 32015G30KT
BECMG 2718/2719 27005KT CAVOK



MET'MAP, la Météo Aéronautique d'un coup d'oeil ! - Copyright ORBIFLY Décembre 2007 - Disclaimer

ORBIFLY MET'MAP TEAM :

Programmation & Développement : Alexandra Zaïnal
Sur une idée originale de : Baudouin d'Aumeries
Assistance à la programmation : Marc-Olivier Méhu
Soutien technique & logistique : Manuel Goepfert

Contact : metmap@orbifly.com




SOURCES & CREDITS :

   NOAA